Terminal Aerodrome Forecast
Issued by NWS Wakefield, VA

Home | Current Version | Previous Version | Text Only | Print | Product List | Glossary On
Versions: 1 2 3 4 5 6 7 8 9 10 11 12 13 14 15 16 17
445
FTUS41 KAKQ 112338
TAFECG
TAF
KECG 112338Z 1200/1224 30006KT P6SM SKC
     FM120400 01008KT P6SM SKC
     FM121100 02005KT P6SM OVC100
     FM121400 06005KT P6SM OVC050
     FM121600 07006KT 2SM -SN BR OVC015
     FM121900 06006KT 1/2SM SN FG OVC005=

USA.gov is the U.S. government's official web portal to all federal, state and local government web resources and services.